Time;durP1;ratioP1;P1;durP2;ratioP2;P2;SDS_P1;SDS_P2;PMS_P1;PMS_P2;Temp;Humidity;BMP_temperature;BMP_pressure;BME280_temperature;BME280_humidity;BME280_pressure;Samples;Min_cycle;Max_cycle;Signal;HPM_P1;HPM_P2
2022/08/01 00:01:59;;;;;;;2.80;1.73;;;;;;;23.57;42.63;99077.59;5191165;28;20049;-70
2022/08/01 00:04:49;;;;;;;4.35;2.10;;;;;;;23.51;42.60;99073.06;5204911;28;20415;-70
2022/08/01 00:07:40;;;;;;;5.05;1.83;;;;;;;23.33;43.13;99079.31;5204204;28;20108;-70
2022/08/01 00:10:30;;;;;;;3.25;1.55;;;;;;;23.44;42.68;99084.81;5204390;28;20514;-70
2022/08/01 00:13:20;;;;;;;5.00;1.75;;;;;;;23.41;42.91;99079.84;5203919;28;20115;-70
2022/08/01 00:16:10;;;;;;;1.95;1.70;;;;;;;23.41;43.13;99076.31;5204807;28;20053;-70
2022/08/01 00:19:00;;;;;;;3.08;1.73;;;;;;;23.31;42.94;99073.28;5204381;28;20431;-70
2022/08/01 00:21:50;;;;;;;2.65;1.77;;;;;;;23.50;43.12;99074.13;5204076;28;20056;-70
2022/08/01 00:24:41;;;;;;;3.58;1.85;;;;;;;23.38;42.91;99080.31;5204777;28;20072;-70
2022/08/01 00:27:31;;;;;;;4.40;2.08;;;;;;;23.38;43.02;99076.78;5204363;28;20187;-70
2022/08/01 00:30:26;;;;;;;3.55;1.90;;;;;;;23.32;43.86;99081.19;5200123;28;20080;-70
2022/08/01 00:33:17;;;;;;;7.65;2.08;;;;;;;23.13;43.55;99085.75;5203625;28;20060;-72
2022/08/01 00:36:08;;;;;;;3.00;1.92;;;;;;;23.08;44.21;99073.94;5204240;28;20273;-70
2022/08/01 00:38:58;;;;;;;3.47;2.17;;;;;;;;;;5203980;28;20060;-71
2022/08/01 00:41:48;;;;;;;5.97;2.17;;;;;;;23.09;44.02;99087.25;5203740;28;20139;-70
2022/08/01 00:44:49;;;;;;;2.63;1.90;;;;;;;23.10;43.92;99098.91;5199375;28;20536;-70
2022/08/01 00:47:40;;;;;;;4.10;2.00;;;;;;;22.91;44.23;99096.13;5204343;28;20050;-70
2022/08/01 00:50:30;;;;;;;3.17;2.08;;;;;;;23.04;44.45;99103.31;5204049;28;20056;-70
2022/08/01 00:53:20;;;;;;;3.95;2.00;;;;;;;22.93;44.86;99095.94;5204030;28;20053;-70
2022/08/01 00:56:11;;;;;;;2.72;1.95;;;;;;;22.80;45.30;99096.84;5203866;28;20065;-70
2022/08/01 00:59:03;;;;;;;4.00;2.03;;;;;;;22.84;44.35;99100.75;5203616;28;20387;-70
2022/08/01 01:01:53;;;;;;;3.03;1.90;;;;;;;22.65;44.93;99099.88;5197308;28;20419;-70
2022/08/01 01:04:44;;;;;;;5.78;2.08;;;;;;;22.75;44.78;99085.88;5203680;28;20519;-70
2022/08/01 01:08:01;;;;;;;3.10;1.90;;;;;;;22.82;44.88;99102.03;5203109;28;20063;-70
2022/08/01 01:10:57;;;;;;;3.03;2.10;;;;;;;22.59;45.31;99105.34;5202895;28;20353;-70
2022/08/01 01:13:57;;;;;;;3.05;1.98;;;;;;;22.70;45.20;99091.91;5203452;28;20500;-70
2022/08/01 01:16:49;;;;;;;3.10;1.88;;;;;;;22.73;44.91;99090.66;5203353;28;20425;-72
2022/08/01 01:19:47;;;;;;;2.53;2.10;;;;;;;22.74;45.17;99095.00;5202763;28;20146;-70
2022/08/01 01:22:46;;;;;;;2.65;2.00;;;;;;;22.61;45.76;99103.22;5202484;28;20127;-72
2022/08/01 01:25:58;;;;;;;2.83;2.10;;;;;;;22.64;45.77;99102.78;5201586;28;20423;-72
2022/08/01 01:29:05;;;;;;;3.20;2.25;;;;;;;22.65;45.60;99104.44;5203023;28;20124;-72
2022/08/01 01:32:02;;;;;;;4.22;1.95;;;;;;;22.66;45.70;99103.41;5187160;28;20073;-72
2022/08/01 01:34:54;;;;;;;5.15;2.10;;;;;;;22.57;45.93;99099.31;5202015;28;20156;-71
2022/08/01 01:37:47;;;;;;;5.47;2.00;;;;;;;22.51;46.43;99104.53;5202091;28;20046;-72
2022/08/01 01:40:39;;;;;;;3.20;2.08;;;;;;;22.58;46.22;99100.94;5202257;28;20075;-72
2022/08/01 01:43:29;;;;;;;2.47;1.98;;;;;;;22.35;46.27;99074.50;5202628;28;20446;-72
2022/08/01 01:46:26;;;;;;;3.92;2.33;;;;;;;22.67;45.80;99105.88;5202656;28;20814;-72
2022/08/01 01:49:19;;;;;;;;;;;;;;;22.75;46.13;99105.63;5203564;28;20092;-69
2022/08/01 01:52:13;;;;;;;2.28;2.08;;;;;;;22.69;46.01;99106.50;5202156;28;19928;-72
2022/08/01 01:55:06;;;;;;;5.95;2.45;;;;;;;22.50;46.69;99093.94;5202550;28;20056;-71
2022/08/01 01:57:58;;;;;;;2.90;2.00;;;;;;;22.53;46.90;99117.84;5202514;28;20152;-72
2022/08/01 02:00:50;;;;;;;3.97;2.42;;;;;;;22.48;46.50;99112.25;5201200;28;20215;-72
2022/08/01 02:03:43;;;;;;;3.60;2.13;;;;;;;22.46;46.82;99122.47;5202182;28;20202;-72
2022/08/01 02:06:34;;;;;;;3.42;2.15;;;;;;;22.55;46.65;99109.50;5202779;28;20140;-72
2022/08/01 02:09:27;;;;;;;3.55;2.17;;;;;;;22.58;46.70;99107.19;5202296;28;20546;-72
2022/08/01 02:12:21;;;;;;;3.42;2.58;;;;;;;22.52;46.88;99113.47;5187110;28;20488;-72
2022/08/01 02:15:13;;;;;;;3.90;2.20;;;;;;;22.45;47.04;99112.66;5201822;28;20093;-72
2022/08/01 02:18:06;;;;;;;3.28;2.22;;;;;;;22.45;47.00;99108.13;5203398;28;20061;-72
2022/08/01 02:20:58;;;;;;;5.95;2.30;;;;;;;22.38;47.25;99131.63;5208865;28;20052;-73
2022/08/01 02:23:51;;;;;;;4.47;2.22;;;;;;;22.26;47.84;99111.78;5208596;28;20049;-72
2022/08/01 02:26:47;;;;;;;3.35;2.53;;;;;;;22.30;47.66;99131.91;5208287;28;20053;-72
2022/08/01 02:30:05;;;;;;;3.10;2.65;;;;;;;22.28;48.24;99132.13;5209171;28;20175;-72
2022/08/01 02:33:04;;;;;;;5.40;2.45;;;;;;;22.28;47.96;99131.28;5207701;28;20153;-72
2022/08/01 02:35:59;;;;;;;3.88;2.20;;;;;;;22.25;47.81;99131.69;5209392;28;20421;-71
2022/08/01 02:39:13;;;;;;;3.10;2.42;;;;;;;22.09;48.42;99137.59;5209447;28;20057;-72
2022/08/01 02:42:07;;;;;;;3.60;2.22;;;;;;;22.16;48.50;99133.03;5208697;28;20412;-72
2022/08/01 02:44:58;;;;;;;4.45;2.25;;;;;;;22.13;48.60;99133.41;5208775;28;20050;-72
2022/08/01 02:47:51;;;;;;;6.13;2.55;;;;;;;22.32;48.07;99135.22;5208674;28;20569;-72
2022/08/01 02:50:47;;;;;;;4.55;2.40;;;;;;;21.89;49.41;99127.72;5208495;28;20554;-72
2022/08/01 02:53:41;;;;;;;3.00;2.30;;;;;;;21.81;49.31;99109.84;5208737;28;20107;-72
2022/08/01 02:56:35;;;;;;;3.97;2.45;;;;;;;21.97;49.19;99134.72;5208620;28;20049;-72
2022/08/01 02:59:27;;;;;;;4.13;2.70;;;;;;;22.17;48.77;99140.88;5195219;28;20053;-72
2022/08/01 03:02:21;;;;;;;3.33;2.22;;;;;;;22.26;48.56;99136.06;5206841;28;20428;-72
2022/08/01 03:05:13;;;;;;;4.10;2.25;;;;;;;22.16;48.98;99135.72;5192775;28;20041;-72
2022/08/01 03:08:05;;;;;;;4.75;2.67;;;;;;;21.92;49.67;99137.22;5208812;28;20427;-72
2022/08/01 03:11:05;;;;;;;3.83;2.20;;;;;;;21.84;49.77;99142.88;5208000;28;20068;-72
2022/08/01 03:13:58;;;;;;;10.70;2.55;;;;;;;22.00;49.33;99137.00;5209038;28;20203;-72
2022/08/01 03:16:51;;;;;;;3.97;2.50;;;;;;;21.97;49.67;99138.25;5208354;28;20425;-71
2022/08/01 03:19:45;;;;;;;3.08;2.60;;;;;;;21.99;49.48;99136.19;5208399;28;20063;-72
2022/08/01 03:22:37;;;;;;;3.95;2.30;;;;;;;21.90;49.89;99136.63;5208121;28;20131;-72
2022/08/01 03:25:30;;;;;;;5.95;2.63;;;;;;;21.85;49.78;99147.22;5208524;28;20459;-71
2022/08/01 03:28:22;;;;;;;4.65;2.50;;;;;;;21.85;50.10;99131.03;5208891;28;20053;-71
2022/08/01 03:31:18;;;;;;;3.10;2.50;;;;;;;21.81;50.21;99141.44;5203979;28;20072;-71
2022/08/01 03:34:09;;;;;;;4.15;2.63;;;;;;;21.76;50.14;99127.75;5204254;28;20076;-71
2022/08/01 03:37:06;;;;;;;4.25;2.83;;;;;;;21.76;50.40;99144.78;5205105;28;20111;-71
2022/08/01 03:40:08;;;;;;;3.03;2.50;;;;;;;21.67;50.42;99143.34;5204989;28;20424;-71
2022/08/01 03:43:04;;;;;;;2.83;2.58;;;;;;;21.67;50.86;99154.13;5204728;28;20053;-71
2022/08/01 03:45:58;;;;;;;3.47;2.45;;;;;;;21.51;50.83;99151.88;5197047;28;20061;-71
2022/08/01 03:48:52;;;;;;;4.10;3.05;;;;;;;21.53;51.13;99156.03;5199507;28;20059;-71
2022/08/01 03:51:47;;;;;;;5.20;2.67;;;;;;;21.44;51.22;99151.91;5189974;28;20566;-71
2022/08/01 03:54:43;;;;;;;3.05;2.55;;;;;;;21.42;51.33;99159.38;5204802;28;20132;-71
2022/08/01 03:57:34;;;;;;;3.60;2.65;;;;;;;21.37;51.87;99161.88;5203889;28;20132;-71
2022/08/01 04:00:27;;;;;;;6.57;2.67;;;;;;;21.28;51.51;99166.63;5204579;28;20055;-71
2022/08/01 04:03:18;;;;;;;4.35;2.42;;;;;;;21.20;52.34;99166.00;5204276;28;20064;-71
2022/08/01 04:06:10;;;;;;;2.75;2.47;;;;;;;21.26;51.68;99162.50;5204966;28;20053;-71
2022/08/01 04:09:00;;;;;;;3.80;2.75;;;;;;;21.08;52.46;99161.22;5204763;28;20519;-71
2022/08/01 04:11:50;;;;;;;3.97;2.88;;;;;;;21.03;52.45;99154.81;5204111;28;20508;-71
2022/08/01 04:14:40;;;;;;;5.53;2.80;;;;;;;21.06;52.77;99160.63;5204235;28;20495;-71
2022/08/01 04:17:31;;;;;;;5.10;2.80;;;;;;;20.79;52.88;99153.53;5204501;28;20138;-71
2022/08/01 04:20:22;;;;;;;5.05;3.03;;;;;;;20.75;52.58;99150.44;5204720;28;20053;-71
2022/08/01 04:23:14;;;;;;;3.97;2.90;;;;;;;20.85;53.48;99160.81;5188730;28;20100;-72
2022/08/01 04:26:05;;;;;;;4.50;3.03;;;;;;;20.81;53.47;99173.88;5203876;28;20192;-71
2022/08/01 04:28:56;;;;;;;4.68;2.58;;;;;;;20.84;53.16;99169.94;5203780;28;20053;-71
2022/08/01 04:31:48;;;;;;;4.38;3.03;;;;;;;20.89;54.51;99159.34;5203767;28;20052;-71
2022/08/01 04:34:41;;;;;;;4.25;2.70;;;;;;;20.92;54.34;99174.28;5204358;28;20111;-71
2022/08/01 04:37:33;;;;;;;4.25;2.72;;;;;;;21.05;54.14;99168.91;5204267;28;20107;-71
2022/08/01 04:40:26;;;;;;;4.22;3.00;;;;;;;21.17;53.56;99177.22;5203670;28;20064;-72
2022/08/01 04:43:16;;;;;;;3.08;2.58;;;;;;;21.30;53.72;99171.81;5202968;28;20048;-72
2022/08/01 04:46:08;;;;;;;3.75;2.83;;;;;;;21.27;53.67;99166.84;5200835;28;20056;-71
2022/08/01 04:49:00;;;;;;;3.25;2.60;;;;;;;21.25;54.83;99167.03;5201295;28;20189;-71
2022/08/01 04:51:59;;;;;;;3.15;2.80;;;;;;;21.34;54.30;99170.34;5201707;28;20048;-71
2022/08/01 04:54:49;;;;;;;3.95;2.80;;;;;;;21.42;54.96;99161.22;5201537;28;20072;-71
2022/08/01 04:57:44;;;;;;;5.03;2.70;;;;;;;21.60;54.66;99166.00;5202805;28;20050;-71
2022/08/01 05:00:34;;;;;;;4.38;2.60;;;;;;;21.64;55.03;99164.53;5200526;28;20056;-72
2022/08/01 05:03:25;;;;;;;3.90;2.53;;;;;;;21.78;54.27;99168.84;5200602;28;20045;-71
2022/08/01 05:06:15;;;;;;;5.93;2.63;;;;;;;21.84;54.57;99170.69;5202302;28;20050;-72
2022/08/01 05:09:07;;;;;;;3.50;2.42;;;;;;;21.86;55.35;99165.09;5196645;28;20057;-72
2022/08/01 05:11:59;;;;;;;6.78;2.60;;;;;;;21.95;54.57;99169.19;5202919;28;20416;-71
2022/08/01 05:14:49;;;;;;;8.35;2.60;;;;;;;22.09;54.94;99175.41;5201534;28;20080;-71
2022/08/01 05:17:39;;;;;;;3.30;2.65;;;;;;;22.01;54.78;99169.16;5198426;28;20107;-70
2022/08/01 05:20:29;;;;;;;6.18;2.80;;;;;;;22.05;54.29;99177.66;5201995;28;20363;-70
2022/08/01 05:23:20;;;;;;;4.95;2.63;;;;;;;22.04;53.95;99166.03;5192200;28;20052;-70
2022/08/01 05:26:30;;;;;;;4.15;2.60;;;;;;;22.10;54.49;99171.66;5199379;28;20080;-72
2022/08/01 05:29:22;;;;;;;9.10;2.72;;;;;;;22.18;54.67;99174.94;5201859;28;20154;-72
2022/08/01 05:32:12;;;;;;;3.55;2.65;;;;;;;22.42;53.69;99176.09;5197236;28;20053;-73
2022/08/01 05:35:02;;;;;;;7.65;2.80;;;;;;;22.57;54.74;99177.66;5199091;28;20138;-70
2022/08/01 05:37:53;;;;;;;2.67;2.40;;;;;;;22.78;54.36;99184.59;5202892;28;20519;-70
2022/08/01 05:40:43;;;;;;;4.22;1.98;;;;;;;23.07;52.53;99175.88;5197946;28;20049;-71
2022/08/01 05:43:33;;;;;;;4.95;2.30;;;;;;;22.91;52.83;99166.44;5189275;28;20052;-71
2022/08/01 05:46:23;;;;;;;3.45;2.38;;;;;;;23.09;53.65;99170.28;5202376;28;20428;-72
2022/08/01 05:49:16;;;;;;;2.65;2.17;;;;;;;23.38;52.72;99183.13;5203229;28;20147;-70
2022/08/01 05:52:07;;;;;;;3.88;2.10;;;;;;;23.33;51.92;99182.94;5201856;28;20045;-71
2022/08/01 05:54:58;;;;;;;7.82;2.28;;;;;;;23.53;52.06;99190.88;5202412;28;20053;-72
2022/08/01 05:57:48;;;;;;;4.65;2.13;;;;;;;23.40;52.28;99189.13;5187261;28;20050;-71
2022/08/01 06:00:39;;;;;;;3.53;2.10;;;;;;;23.51;52.03;99187.59;5199106;28;20057;-72
2022/08/01 06:03:31;;;;;;;4.10;2.38;;;;;;;23.61;52.70;99195.19;5201571;28;20119;-71
2022/08/01 06:06:21;;;;;;;5.22;2.10;;;;;;;23.67;52.21;99195.13;5198611;28;20574;-71
2022/08/01 06:09:14;;;;;;;5.78;2.13;;;;;;;23.66;51.68;99192.63;5199631;28;20108;-70
2022/08/01 06:12:04;;;;;;;3.28;1.90;;;;;;;23.91;50.98;99189.91;5191908;28;20052;-68
2022/08/01 06:14:55;;;;;;;9.57;2.13;;;;;;;24.00;51.27;99193.13;5193127;28;20057;-70
2022/08/01 06:17:45;;;;;;;7.20;2.42;;;;;;;24.14;50.51;99194.66;5200815;28;20083;-71
2022/08/01 06:20:35;;;;;;;6.05;2.30;;;;;;;24.32;49.93;99185.66;5200038;28;20056;-69
2022/08/01 06:23:26;;;;;;;7.18;2.55;;;;;;;24.34;50.61;99197.94;5199575;28;20411;-70
2022/08/01 06:26:21;;;;;;;6.85;2.38;;;;;;;24.28;50.65;99196.13;5199299;28;20099;-68
2022/08/01 06:29:12;;;;;;;4.22;1.95;;;;;;;24.28;50.82;99190.72;5181328;28;20419;-69
2022/08/01 06:32:03;;;;;;;1.95;1.65;;;;;;;24.38;51.02;99204.53;5197604;28;20123;-70
2022/08/01 06:34:54;;;;;;;2.08;1.80;;;;;;;24.53;50.59;99208.75;5200988;28;20052;-72
2022/08/01 06:37:46;;;;;;;2.63;1.92;;;;;;;24.69;50.40;99210.00;5200764;28;20116;-70
2022/08/01 06:40:38;;;;;;;2.83;1.70;;;;;;;24.43;50.11;99195.75;5187928;28;20065;-69
2022/08/01 06:43:28;;;;;;;2.92;1.77;;;;;;;24.72;49.76;99194.09;5183210;28;20052;-69
2022/08/01 06:46:19;;;;;;;3.08;1.90;;;;;;;24.59;50.67;99205.94;5179148;28;20416;-69
2022/08/01 06:49:09;;;;;;;1.95;1.50;;;;;;;25.03;49.11;99197.59;5172938;28;20444;-69
2022/08/01 06:52:00;;;;;;;4.82;1.50;;;;;;;24.56;49.41;99205.59;5165897;28;20500;-68
2022/08/01 06:54:50;;;;;;;3.08;1.60;;;;;;;24.66;49.86;99213.16;5162185;28;20050;-68
2022/08/01 06:57:49;;;;;;;2.47;1.60;;;;;;;24.49;50.82;99212.97;5168317;28;20066;-68
2022/08/01 07:00:42;;;;;;;7.10;1.70;;;;;;;24.95;49.46;99208.78;5176142;28;20630;-68
2022/08/01 07:03:36;;;;;;;3.53;1.90;;;;;;;25.05;49.11;99211.75;5172939;28;20057;-68
2022/08/01 07:06:42;;;;;;;5.50;1.77;;;;;;;24.78;48.82;99212.16;5177415;28;20089;-69
2022/08/01 07:09:33;;;;;;;2.78;1.50;;;;;;;24.51;49.92;99213.59;5186467;28;20307;-69
2022/08/01 07:12:24;;;;;;;4.35;1.70;;;;;;;24.66;50.07;99208.56;5185891;28;20049;-68
2022/08/01 07:15:15;;;;;;;3.13;1.63;;;;;;;25.25;49.29;99203.31;5179257;28;20053;-68
2022/08/01 07:18:05;;;;;;;3.58;1.50;;;;;;;25.57;47.20;99201.09;5176922;28;20053;-68
2022/08/01 07:20:55;;;;;;;2.70;1.77;;;;;;;26.18;47.37;99201.63;5175546;28;20531;-67
2022/08/01 07:23:45;;;;;;;3.38;1.60;;;;;;;25.65;47.58;99208.06;5170853;28;20054;-68
2022/08/01 07:26:35;;;;;;;2.65;1.55;;;;;;;26.30;46.16;99190.75;5170646;28;20057;-68
2022/08/01 07:29:26;;;;;;;2.83;1.40;;;;;;;26.76;45.05;99203.34;5180653;28;20083;-68
2022/08/01 07:32:16;;;;;;;1.63;1.30;;;;;;;26.75;44.76;99198.97;5179134;28;20116;-68
2022/08/01 07:35:08;;;;;;;2.00;1.50;;;;;;;27.16;44.67;99203.25;5182744;28;20092;-68
2022/08/01 07:37:57;;;;;;;4.68;1.60;;;;;;;26.66;45.98;99203.16;5184405;28;20061;-68
2022/08/01 07:40:48;;;;;;;2.22;1.65;;;;;;;27.00;44.51;99195.06;5182305;28;20523;-68
2022/08/01 07:43:38;;;;;;;3.42;1.55;;;;;;;26.54;45.55;99196.94;5182594;28;20056;-68
2022/08/01 07:46:30;;;;;;;2.75;1.30;;;;;;;27.11;45.36;99205.03;5175453;28;20056;-68
2022/08/01 07:49:21;;;;;;;3.22;1.48;;;;;;;27.44;43.91;99189.78;5173221;28;20506;-68
2022/08/01 07:52:12;;;;;;;2.92;1.60;;;;;;;27.44;45.10;99196.06;5166871;28;20523;-68
2022/08/01 07:55:02;;;;;;;2.17;1.38;;;;;;;27.17;45.08;99190.47;5169746;28;20061;-68
2022/08/01 07:57:52;;;;;;;2.03;1.50;;;;;;;27.47;43.84;99197.47;5168209;28;20054;-68
2022/08/01 08:00:43;;;;;;;1.55;1.30;;;;;;;27.13;44.50;99194.75;5181308;28;20058;-68
2022/08/01 08:03:33;;;;;;;1.75;1.60;;;;;;;27.05;43.99;99198.69;5176149;28;20060;-68
2022/08/01 08:06:23;;;;;;;4.80;1.70;;;;;;;27.16;44.49;99192.38;5184732;28;20068;-68
2022/08/01 08:09:15;;;;;;;3.20;1.65;;;;;;;28.45;43.26;99184.09;5172490;28;20507;-68
2022/08/01 08:12:06;;;;;;;1.88;1.23;;;;;;;28.86;41.33;99200.88;5178930;28;20065;-68
2022/08/01 08:15:00;;;;;;;4.55;1.48;;;;;;;30.25;37.60;99190.69;5176660;28;20408;-68
2022/08/01 08:17:51;;;;;;;1.92;1.30;;;;;;;30.68;38.06;99188.63;5168492;28;20065;-68
2022/08/01 08:20:44;;;;;;;1.85;1.25;;;;;;;31.75;37.19;99185.06;5176022;28;20515;-68
2022/08/01 08:26:44;;;;;;;1.98;1.20;;;;;;;31.46;36.26;99187.63;5172807;28;20049;-69
2022/08/01 08:29:34;;;;;;;3.30;1.42;;;;;;;30.69;38.43;99184.78;5164173;28;20080;-68
2022/08/01 08:32:25;;;;;;;2.88;1.65;;;;;;;31.03;37.65;99181.59;5173900;28;20126;-69
2022/08/01 08:35:15;;;;;;;2.28;1.48;;;;;;;29.52;38.20;99176.06;5169537;28;20068;-69
2022/08/01 08:38:27;;;;;;;2.15;1.60;;;;;;;30.20;38.01;99174.28;5182950;28;20072;-69
2022/08/01 08:41:19;;;;;;;1.67;1.58;;;;;;;30.66;37.97;99182.59;5198839;28;20064;-69
2022/08/01 08:44:11;;;;;;;3.83;1.40;;;;;;;30.01;38.13;99181.28;5181565;28;20049;-68
2022/08/01 08:47:05;;;;;;;5.40;1.50;;;;;;;31.46;36.63;99179.41;5175411;28;20068;-68
2022/08/01 08:49:59;;;;;;;2.17;1.30;;;;;;;30.59;37.02;99180.09;5173367;28;20515;-69
2022/08/01 08:52:52;;;;;;;2.55;1.48;;;;;;;29.88;39.32;99175.19;5180548;28;20119;-68
2022/08/01 08:55:43;;;;;;;2.28;1.42;;;;;;;30.14;38.69;99169.84;5171646;28;20199;-68
2022/08/01 08:58:45;;;;;;;2.20;1.52;;;;;;;31.72;36.34;99172.75;5177054;28;20056;-70
2022/08/01 09:01:35;;;;;;;1.35;1.25;;;;;;;29.44;39.24;99175.47;5185037;28;20148;-69
2022/08/01 09:04:26;;;;;;;5.03;1.60;;;;;;;29.18;39.22;99185.38;5174076;28;20106;-69
2022/08/01 09:07:16;;;;;;;3.67;1.42;;;;;;;29.67;39.09;99182.47;5167580;28;20135;-69
2022/08/01 09:10:08;;;;;;;2.63;1.25;;;;;;;29.52;39.13;99182.34;5170705;28;21149;-69
2022/08/01 09:13:11;;;;;;;5.25;1.58;;;;;;;29.58;39.70;99186.75;5173442;28;20430;-69
2022/08/01 09:16:04;;;;;;;1.95;1.33;;;;;;;29.97;38.57;99172.78;5175210;28;20064;-70
2022/08/01 09:19:06;;;;;;;1.98;1.80;;;;;;;30.00;38.75;99174.13;5178328;28;20110;-70
2022/08/01 09:22:07;;;;;;;3.65;1.85;;;;;;;29.03;41.12;99175.13;5171236;28;20472;-69
2022/08/01 09:25:07;;;;;;;3.20;1.90;;;;;;;29.45;39.62;99174.38;5182862;28;20434;-69
2022/08/01 09:28:06;;;;;;;2.38;1.90;;;;;;;28.87;40.06;99191.59;5183737;28;20535;-69
2022/08/01 09:30:57;;;;;;;2.92;2.22;;;;;;;29.81;39.53;99185.56;5180938;28;20088;-69
2022/08/01 09:33:53;;;;;;;3.42;2.40;;;;;;;30.97;37.77;99185.41;5180501;28;20140;-69
2022/08/01 09:36:56;;;;;;;4.47;2.85;;;;;;;30.73;39.47;99185.06;5183161;28;20200;-69
2022/08/01 09:39:54;;;;;;;3.30;2.60;;;;;;;30.43;37.42;99168.34;5166652;28;20448;-69
2022/08/01 09:42:48;;;;;;;3.45;2.95;;;;;;;30.12;37.83;99188.41;5173396;28;20110;-69
2022/08/01 09:45:38;;;;;;;;;;;;;;;29.32;40.04;99193.13;5175402;28;20057;-69
2022/08/01 09:48:32;;;;;;;4.00;2.78;;;;;;;28.79;40.06;99190.19;5173819;28;19944;-68
2022/08/01 09:51:37;;;;;;;6.80;3.13;;;;;;;29.13;40.40;99187.22;5169969;28;20500;-69
2022/08/01 09:54:56;;;;;;;5.97;2.75;;;;;;;28.74;40.27;99188.22;5172624;28;20053;-69
2022/08/01 09:57:57;;;;;;;6.95;2.70;;;;;;;30.58;38.34;99183.94;5169226;28;20052;-69
2022/08/01 10:00:59;;;;;;;3.60;2.42;;;;;;;30.07;37.32;99185.69;5165428;28;20056;-68
2022/08/01 10:04:09;;;;;;;2.75;2.33;;;;;;;30.21;37.87;99178.66;5163550;28;20603;-68
2022/08/01 10:07:07;;;;;;;5.82;2.20;;;;;;;30.36;37.51;99181.41;5164418;28;20061;-69
2022/08/01 10:10:11;;;;;;;4.97;2.50;;;;;;;29.88;38.55;99174.38;5165127;28;20432;-69
2022/08/01 10:13:04;;;;;;;3.88;2.55;;;;;;;31.52;36.92;99181.00;5174610;28;20088;-68
2022/08/01 10:15:54;;;;;;;4.22;2.40;;;;;;;30.75;37.00;99172.75;5168690;28;20096;-69
2022/08/01 10:18:48;;;;;;;2.92;2.33;;;;;;;31.07;37.25;99177.19;5169564;28;20068;-69
2022/08/01 10:21:39;;;;;;;7.15;2.13;;;;;;;32.04;35.77;99171.56;5171051;28;20084;-71
2022/08/01 10:24:49;;;;;;;5.07;2.40;;;;;;;31.15;36.39;99168.41;5171263;28;20135;-70
2022/08/01 10:27:45;;;;;;;3.97;3.15;;;;;;;32.05;36.07;99160.34;5178644;28;20076;-67
2022/08/01 10:30:37;;;;;;;3.60;2.22;;;;;;;31.46;35.37;99152.00;5177533;28;20065;-68
2022/08/01 10:33:30;;;;;;;4.03;2.30;;;;;;;31.91;34.68;99158.47;5175393;28;20053;-69
2022/08/01 10:36:42;;;;;;;4.57;2.00;;;;;;;32.99;33.39;99162.28;5179426;28;20180;-69
2022/08/01 10:39:33;;;;;;;2.88;1.67;;;;;;;33.47;33.20;99156.88;5182741;28;20065;-69
2022/08/01 10:42:24;;;;;;;2.60;2.00;;;;;;;33.19;32.59;99159.34;5176126;28;20369;-69
2022/08/01 10:45:15;;;;;;;2.60;1.70;;;;;;;33.46;32.83;99166.25;5182071;28;20099;-70
2022/08/01 10:48:14;;;;;;;3.28;1.70;;;;;;;32.57;33.57;99160.91;5194566;28;20115;-69
2022/08/01 10:51:10;;;;;;;;;;;;;;;32.25;33.75;99162.16;5171664;28;20077;-68
2022/08/01 10:54:12;;;;;;;2.20;1.73;;;;;;;31.41;34.70;99152.81;5171021;28;19976;-69
2022/08/01 10:57:02;;;;;;;1.92;1.73;;;;;;;31.15;35.07;99162.13;5168327;28;20120;-67
2022/08/01 10:59:54;;;;;;;4.10;1.65;;;;;;;31.49;35.75;99155.00;5173339;28;20706;-68
2022/08/01 11:03:03;;;;;;;2.90;1.80;;;;;;;31.97;35.60;99155.41;5178480;28;20053;-67
2022/08/01 11:05:54;;;;;;;2.20;1.70;;;;;;;32.77;33.09;99146.19;5174350;28;20707;-69
2022/08/01 11:08:51;;;;;;;1.73;1.42;;;;;;;32.08;33.40;99150.69;5186723;28;20120;-69
2022/08/01 11:12:01;;;;;;;5.60;1.67;;;;;;;32.49;33.73;99140.38;5204423;28;20280;-68
2022/08/01 11:14:58;;;;;;;2.70;1.63;;;;;;;32.93;33.41;99146.91;5179760;28;20110;-68
2022/08/01 11:17:48;;;;;;;1.65;1.55;;;;;;;32.57;34.15;99138.94;5171752;28;20060;-67
2022/08/01 11:20:57;;;;;;;4.03;2.08;;;;;;;31.28;35.23;99124.03;5179017;28;20057;-67
2022/08/01 11:24:07;;;;;;;3.87;1.40;;;;;;;32.04;33.56;99122.19;5176167;28;20144;-67
2022/08/01 11:27:18;;;;;;;4.03;1.50;;;;;;;31.32;34.16;99127.03;5172031;28;20277;-66
2022/08/01 11:30:13;;;;;;;1.63;1.50;;;;;;;32.65;33.32;99127.38;5172537;28;20049;-69
2022/08/01 11:33:06;;;;;;;2.08;1.52;;;;;;;31.72;34.38;99120.69;5174574;28;20061;-69
2022/08/01 11:36:10;;;;;;;1.58;1.48;;;;;;;31.74;33.10;99103.94;5168706;28;20107;-67
2022/08/01 11:39:00;;;;;;;3.28;1.35;;;;;;;31.04;35.37;99106.53;5171777;28;20538;-66
2022/08/01 11:41:52;;;;;;;2.50;1.60;;;;;;;32.22;34.25;99115.25;5169804;28;20260;-67
2022/08/01 11:44:50;;;;;;;4.97;1.70;;;;;;;30.92;35.51;99103.25;5179222;28;20045;-69
2022/08/01 11:47:48;;;;;;;3.47;1.50;;;;;;;31.45;35.48;99092.78;5186513;28;20053;-69
2022/08/01 11:50:39;;;;;;;5.57;1.77;;;;;;;31.75;34.51;99098.16;5178564;28;20045;-67
2022/08/01 11:53:30;;;;;;;2.42;1.50;;;;;;;31.36;34.66;99092.56;5179472;28;20053;-69
2022/08/01 11:56:23;;;;;;;2.63;1.60;;;;;;;31.64;34.19;99082.03;5173863;28;20053;-69
2022/08/01 11:59:18;;;;;;;3.03;1.60;;;;;;;30.28;35.84;99099.09;5171049;28;20059;-67
2022/08/01 12:02:19;;;;;;;3.15;1.85;;;;;;;30.45;35.81;99105.13;5171213;28;20115;-68
2022/08/01 12:05:20;;;;;;;1.60;1.50;;;;;;;30.41;36.01;99099.38;5172467;28;20061;-68
2022/08/01 12:08:27;;;;;;;2.42;1.35;;;;;;;30.09;36.13;99094.06;5176560;28;20853;-69
2022/08/01 12:11:18;;;;;;;2.03;1.60;;;;;;;30.64;35.67;99083.53;5170669;28;20226;-69
2022/08/01 12:14:08;;;;;;;2.33;2.00;;;;;;;29.54;36.91;99081.81;5174425;28;20147;-69
2022/08/01 12:16:59;;;;;;;3.15;1.58;;;;;;;29.36;36.64;99085.81;5181811;28;20068;-69
2022/08/01 12:19:49;;;;;;;1.90;1.52;;;;;;;29.81;36.80;99070.75;5180323;28;20133;-70
2022/08/01 12:22:40;;;;;;;2.55;1.67;;;;;;;30.69;35.33;99061.63;5180506;28;20045;-69
2022/08/01 12:25:31;;;;;;;3.55;1.60;;;;;;;31.29;34.50;99070.06;5181327;28;20044;-69
2022/08/01 12:28:22;;;;;;;2.40;1.70;;;;;;;31.08;34.37;99072.03;5177165;28;20061;-69
2022/08/01 12:31:12;;;;;;;1.50;1.33;;;;;;;30.36;35.52;99077.47;5170257;28;20431;-70
2022/08/01 12:34:25;;;;;;;3.53;1.80;;;;;;;30.36;35.46;99074.72;5169457;28;20674;-70
2022/08/01 12:37:16;;;;;;;2.92;1.90;;;;;;;30.82;34.65;99065.75;5164638;28;20054;-72
2022/08/01 12:40:15;;;;;;;2.25;1.50;;;;;;;30.95;34.46;99056.97;5170430;28;20093;-67
2022/08/01 12:43:08;;;;;;;5.45;1.70;;;;;;;30.51;35.28;99067.66;5163733;28;20054;-69
2022/08/01 12:46:05;;;;;;;2.55;1.73;;;;;;;30.56;35.70;99059.44;5170813;28;20459;-69
2022/08/01 12:48:55;;;;;;;3.60;1.83;;;;;;;30.17;35.53;99057.19;5177149;28;20519;-69
2022/08/01 12:51:45;;;;;;;1.85;1.50;;;;;;;30.66;34.45;99059.44;5173156;28;20136;-74
2022/08/01 12:55:19;;;;;;;1.50;1.40;;;;;;;30.37;34.75;99062.72;5178611;28;20060;-70
2022/08/01 12:58:12;;;;;;;3.33;1.60;;;;;;;30.73;34.68;99054.53;5173163;28;21490;-69
2022/08/01 13:01:10;;;;;;;1.67;1.55;;;;;;;30.80;34.58;99065.22;5168369;28;20143;-70
2022/08/01 13:04:04;;;;;;;2.15;1.60;;;;;;;31.12;34.98;99051.19;5173893;28;20776;-70
2022/08/01 13:06:55;;;;;;;2.10;1.60;;;;;;;30.39;35.57;99055.03;5182250;28;20056;-68
2022/08/01 13:09:51;;;;;;;2.08;1.30;;;;;;;30.74;34.87;99056.16;5183192;28;20531;-68
2022/08/01 13:12:52;;;;;;;2.08;1.50;;;;;;;31.38;33.69;99059.38;5172881;28;20053;-68
2022/08/01 13:15:44;;;;;;;2.53;1.50;;;;;;;30.65;35.80;99055.06;5169910;28;20104;-68
2022/08/01 13:18:36;;;;;;;5.55;1.52;;;;;;;30.86;34.97;99054.00;5172490;28;20722;-68
2022/08/01 13:21:28;;;;;;;2.95;1.50;;;;;;;30.32;35.94;99053.66;5167429;28;20061;-67
2022/08/01 13:24:38;;;;;;;1.80;1.38;;;;;;;30.53;36.21;99054.50;5170702;28;20046;-68
2022/08/01 13:27:29;;;;;;;1.58;1.33;;;;;;;30.51;36.37;99056.72;5168657;28;20105;-67
2022/08/01 13:30:21;;;;;;;6.35;1.20;;;;;;;30.69;35.48;99053.41;5167942;28;20065;-67
2022/08/01 13:33:12;;;;;;;2.05;1.45;;;;;;;29.41;37.61;99054.97;5171397;28;20180;-67
2022/08/01 13:36:02;;;;;;;1.40;1.27;;;;;;;30.10;36.52;99051.97;5170276;28;21175;-68
2022/08/01 13:42:02;;;;;;;1.38;1.27;;;;;;;30.63;36.31;99052.59;5172095;28;20064;-68
2022/08/01 13:44:53;;;;;;;2.75;1.30;;;;;;;31.13;35.76;99039.16;5177429;28;20107;-67
2022/08/01 13:47:44;;;;;;;2.10;1.30;;;;;;;30.05;36.37;99027.34;5178388;28;20064;-67